Time;durP1;ratioP1;P1;durP2;ratioP2;P2;SDS_P1;SDS_P2;PMS_P1;PMS_P2;Temp;Humidity;BMP_temperature;BMP_pressure;BME280_temperature;BME280_humidity;BME280_pressure;Samples;Min_cycle;Max_cycle;Signal;HPM_P1;HPM_P2
2021/12/05 00:17:46;;;;;;;7.53;6.83;;;;;;;;;;5073643;28;20222;-91
2021/12/05 00:23:12;;;;;;;7.90;6.73;;;;;;;;;;5073000;28;20216;-92
2021/12/05 00:25:42;;;;;;;9.23;7.60;;;;;;;;;;5073472;28;20193;-92
2021/12/05 00:28:45;;;;;;;10.60;7.57;;;;;;;;;;5073341;28;20232;-90
2021/12/05 00:31:22;;;;;;;7.67;6.60;;;;;;;;;;5072493;28;20193;-91
2021/12/05 00:39:57;;;;;;;8.27;7.33;;;;;;;;;;5173096;27;20544;-92
2021/12/05 00:56:27;;;;;;;20.23;8.23;;;;;;;;;;5173220;27;20177;-93
2021/12/05 00:59:15;;;;;;;24.27;9.17;;;;;;;;;;5172336;27;20223;-93
2021/12/05 01:02:13;;;;;;;13.00;7.03;;;;;;;;;;5173519;27;20220;-95
2021/12/05 01:04:55;;;;;;;30.90;8.00;;;;;;;;;;5172468;27;20200;-94
2021/12/05 01:07:57;;;;;;;13.57;6.93;;;;;;;;;;5172435;27;20196;-93
2021/12/05 01:10:39;;;;;;;25.37;7.67;;;;;;;;;;5172522;27;20281;-93
2021/12/05 01:13:30;;;;;;;12.80;6.50;;;;;;;;;;5172456;27;20276;-93
2021/12/05 01:16:00;;;;;;;14.73;5.70;;;;;;;;;;5172348;27;20197;-93
2021/12/05 01:18:28;;;;;;;28.87;7.70;;;;;;;;;;5172040;27;20685;-93
2021/12/05 01:20:59;;;;;;;37.10;8.23;;;;;;;;;;5172413;27;20292;-93
2021/12/05 01:23:34;;;;;;;24.00;9.00;;;;;;;;;;5172099;27;20197;-94
2021/12/05 01:26:03;;;;;;;12.43;4.43;;;;;;;;;;5171962;27;20209;-93
2021/12/05 01:28:49;;;;;;;9.07;5.47;;;;;;;;;;5172100;27;20203;-93
2021/12/05 01:31:22;;;;;;;26.63;6.63;;;;;;;;;;5172039;27;20219;-94
2021/12/05 01:33:57;;;;;;;19.10;6.67;;;;;;;;;;5172185;27;20204;-92
2021/12/05 01:36:31;;;;;;;20.43;7.93;;;;;;;;;;5172147;27;20185;-91
2021/12/05 01:39:09;;;;;;;30.73;10.33;;;;;;;;;;5171610;27;20612;-93
2021/12/05 02:01:40;;;;;;;16.67;7.83;;;;;;;;;;5139279;27;20185;-94
2021/12/05 02:15:38;;;;;;;19.20;6.37;;;;;;;;;;5157431;27;20177;-93
2021/12/05 02:30:00;;;;;;;14.30;7.80;;;;;;;;;;5157406;27;20173;-93
2021/12/05 02:35:53;;;;;;;8.53;6.63;;;;;;;;;;5156855;27;20178;-96
2021/12/05 02:41:10;;;;;;;14.40;6.83;;;;;;;;;;5139241;27;20678;-93
2021/12/05 02:43:42;;;;;;;10.07;6.53;;;;;;;;;;5157143;27;20204;-93
2021/12/05 02:46:12;;;;;;;9.27;6.13;;;;;;;;;;5156582;27;20194;-94
2021/12/05 02:48:40;;;;;;;10.87;8.43;;;;;;;;;;5156805;27;20238;-94
2021/12/05 02:51:10;;;;;;;8.53;7.63;;;;;;;;;;5156139;27;20607;-93
2021/12/05 02:53:42;;;;;;;25.47;20.07;;;;;;;;;;5156486;27;20194;-93
2021/12/05 02:56:12;;;;;;;27.30;21.57;;;;;;;;;;5156410;27;20202;-93
2021/12/05 02:58:44;;;;;;;17.97;14.30;;;;;;;;;;5156671;27;20305;-93
2021/12/05 03:01:18;;;;;;;12.77;8.33;;;;;;;;;;5155340;27;20186;-93
2021/12/05 03:03:46;;;;;;;18.90;6.70;;;;;;;;;;5156584;27;20660;-93
2021/12/05 03:06:17;;;;;;;12.87;7.00;;;;;;;;;;5156216;27;20228;-93
2021/12/05 03:08:46;;;;;;;19.10;9.90;;;;;;;;;;5156272;27;20197;-93
2021/12/05 03:11:14;;;;;;;22.80;14.23;;;;;;;;;;5156085;27;20195;-93
2021/12/05 03:13:42;;;;;;;26.50;19.90;;;;;;;;;;5156326;27;20215;-93
2021/12/05 03:16:11;;;;;;;14.47;11.00;;;;;;;;;;5155988;27;20689;-92
2021/12/05 03:18:39;;;;;;;15.77;11.07;;;;;;;;;;5155946;27;20214;-93
2021/12/05 03:21:08;;;;;;;24.50;12.87;;;;;;;;;;5155889;27;20194;-93
2021/12/05 03:23:36;;;;;;;28.53;9.97;;;;;;;;;;5155898;27;20217;-92
2021/12/05 03:26:05;;;;;;;9.27;6.37;;;;;;;;;;5155943;27;20777;-93
2021/12/05 03:28:33;;;;;;;12.70;7.67;;;;;;;;;;5155883;27;20262;-93
2021/12/05 03:31:00;;;;;;;9.17;6.70;;;;;;;;;;5155810;27;20212;-94
2021/12/05 03:33:28;;;;;;;9.60;6.87;;;;;;;;;;5155611;27;20194;-93
2021/12/05 03:35:55;;;;;;;19.73;9.97;;;;;;;;;;5155583;27;20658;-93
2021/12/05 03:38:23;;;;;;;26.90;10.90;;;;;;;;;;5155177;27;20246;-94
2021/12/05 03:40:50;;;;;;;35.07;11.17;;;;;;;;;;5155607;27;20273;-94
2021/12/05 03:43:20;;;;;;;21.60;11.23;;;;;;;;;;5155664;27;20688;-93
2021/12/05 03:45:52;;;;;;;25.57;11.90;;;;;;;;;;5155451;27;20205;-93
2021/12/05 03:48:20;;;;;;;22.83;9.87;;;;;;;;;;5155733;27;20179;-94
2021/12/05 03:50:49;;;;;;;26.20;8.93;;;;;;;;;;5155518;27;20221;-93
2021/12/05 03:53:18;;;;;;;16.43;10.83;;;;;;;;;;5155449;27;20197;-93
2021/12/05 03:55:48;;;;;;;11.57;8.30;;;;;;;;;;5155402;27;20204;-93
2021/12/05 03:58:16;;;;;;;17.37;9.00;;;;;;;;;;5155052;27;20704;-92
2021/12/05 04:00:47;;;;;;;14.33;8.87;;;;;;;;;;5155233;27;20439;-93
2021/12/05 04:03:16;;;;;;;24.07;10.93;;;;;;;;;;5155263;27;20726;-93
2021/12/05 04:05:44;;;;;;;15.97;8.80;;;;;;;;;;5155212;27;20649;-93
2021/12/05 04:08:14;;;;;;;15.07;8.67;;;;;;;;;;5155143;27;20274;-93
2021/12/05 04:10:52;;;;;;;15.20;9.93;;;;;;;;;;5154951;27;20196;-93
2021/12/05 04:13:20;;;;;;;9.27;7.33;;;;;;;;;;5154748;27;20214;-93
2021/12/05 04:15:50;;;;;;;10.40;7.67;;;;;;;;;;5154945;27;20238;-92
2021/12/05 04:18:17;;;;;;;9.33;7.33;;;;;;;;;;5154978;27;20301;-94
2021/12/05 04:20:45;;;;;;;10.80;9.10;;;;;;;;;;5155246;27;20189;-93
2021/12/05 04:23:12;;;;;;;15.23;10.83;;;;;;;;;;5163091;27;20186;-92
2021/12/05 04:25:40;;;;;;;10.27;8.57;;;;;;;;;;5161913;27;20570;-95
2021/12/05 04:28:09;;;;;;;8.97;7.10;;;;;;;;;;5154720;27;20194;-94
2021/12/05 04:30:36;;;;;;;9.60;8.03;;;;;;;;;;5154419;27;20276;-95
2021/12/05 04:33:05;;;;;;;8.27;6.97;;;;;;;;;;5154708;27;20289;-95
2021/12/05 04:35:33;;;;;;;8.27;7.40;;;;;;;;;;5154418;27;20198;-96
2021/12/05 04:38:01;;;;;;;10.27;9.23;;;;;;;;;;5154408;27;20229;-96
2021/12/05 04:40:28;;;;;;;9.97;7.30;;;;;;;;;;5154501;27;20269;-96
2021/12/05 04:42:55;;;;;;;8.83;7.47;;;;;;;;;;5154580;27;20662;-95
2021/12/05 04:45:24;;;;;;;8.27;7.37;;;;;;;;;;5154621;27;20246;-95
2021/12/05 04:47:52;;;;;;;7.50;6.70;;;;;;;;;;5154740;27;20202;-95
2021/12/05 04:50:22;;;;;;;8.77;7.37;;;;;;;;;;5154466;27;20186;-95
2021/12/05 04:52:49;;;;;;;7.70;6.93;;;;;;;;;;5154581;27;20194;-94
2021/12/05 04:55:17;;;;;;;7.40;6.50;;;;;;;;;;5154474;27;20272;-96
2021/12/05 04:57:46;;;;;;;7.30;6.60;;;;;;;;;;5154383;27;20202;-95
2021/12/05 05:00:16;;;;;;;8.60;7.77;;;;;;;;;;5154311;27;20627;-96
2021/12/05 05:02:44;;;;;;;8.10;7.40;;;;;;;;;;5154866;27;20294;-93
2021/12/05 05:05:12;;;;;;;7.57;6.87;;;;;;;;;;5154416;27;20190;-93
2021/12/05 05:07:42;;;;;;;7.50;6.90;;;;;;;;;;5154872;27;20220;-92
2021/12/05 05:10:12;;;;;;;6.60;6.00;;;;;;;;;;5154496;27;20638;-92
2021/12/05 05:12:39;;;;;;;6.53;5.93;;;;;;;;;;5154693;27;20239;-93
2021/12/05 05:15:08;;;;;;;6.23;5.63;;;;;;;;;;5154307;27;20202;-92
2021/12/05 05:17:37;;;;;;;6.40;5.90;;;;;;;;;;5154331;27;20206;-93
2021/12/05 05:20:14;;;;;;;6.77;5.57;;;;;;;;;;5153904;27;20308;-93
2021/12/05 05:22:50;;;;;;;5.73;5.13;;;;;;;;;;5154340;27;20189;-92
2021/12/05 05:45:16;;;;;;;6.37;5.80;;;;;;;;;;5112616;27;20578;-91
2021/12/05 05:47:58;;;;;;;5.43;4.57;;;;;;;;;;5157551;27;20193;-92
2021/12/05 05:50:26;;;;;;;3.73;3.43;;;;;;;;;;5157629;27;20209;-92
2021/12/05 05:52:53;;;;;;;4.30;3.90;;;;;;;;;;5157617;27;20196;-92
2021/12/05 05:55:22;;;;;;;5.60;5.10;;;;;;;;;;5157327;27;20254;-93
2021/12/05 05:57:59;;;;;;;5.23;4.83;;;;;;;;;;5157316;27;20214;-92
2021/12/05 06:00:33;;;;;;;5.10;4.60;;;;;;;;;;5157081;27;20201;-93
2021/12/05 06:05:45;;;;;;;6.20;5.60;;;;;;;;;;5122441;27;20674;-94
2021/12/05 06:08:13;;;;;;;7.60;6.90;;;;;;;;;;5136297;27;20222;-92
2021/12/05 06:13:22;;;;;;;86.20;49.03;;;;;;;;;;5113213;27;20253;-92
2021/12/05 06:15:50;;;;;;;41.40;26.73;;;;;;;;;;5136350;27;20190;-92
2021/12/05 06:18:18;;;;;;;77.17;59.83;;;;;;;;;;5136463;27;20190;-94
2021/12/05 06:20:46;;;;;;;39.77;31.73;;;;;;;;;;5136111;27;20309;-94
2021/12/05 06:23:14;;;;;;;18.40;16.47;;;;;;;;;;5136258;27;20635;-92
2021/12/05 06:25:47;;;;;;;47.13;42.00;;;;;;;;;;5136147;27;20187;-94
2021/12/05 06:28:16;;;;;;;40.90;29.30;;;;;;;;;;5135769;27;20659;-93
2021/12/05 06:30:52;;;;;;;38.23;31.47;;;;;;;;;;5136265;27;20202;-94
2021/12/05 06:39:19;;;;;;;14.93;11.83;;;;;;;;;;5133074;27;20369;-88
2021/12/05 06:47:28;;;;;;;28.80;24.33;;;;;;;;;;5134149;27;20223;-91
2021/12/05 06:49:56;;;;;;;31.00;23.33;;;;;;;;;;5135970;27;20236;-91
2021/12/05 06:52:23;;;;;;;19.67;14.53;;;;;;;;;;5135544;27;20191;-90
2021/12/05 06:54:51;;;;;;;56.60;43.57;;;;;;;;;;5121059;27;20674;-90
2021/12/05 06:57:20;;;;;;;107.83;75.03;;;;;;;;;;5115109;28;20646;-91
2021/12/05 06:59:49;;;;;;;39.83;32.20;;;;;;;;;;5114994;27;20219;-91
2021/12/05 07:02:21;;;;;;;48.00;38.70;;;;;;;;;;5115031;28;20202;-92
2021/12/05 07:07:33;;;;;;;11.67;10.50;;;;;;;;;;5133070;27;20195;-91
2021/12/05 07:10:01;;;;;;;9.00;8.17;;;;;;;;;;5135203;27;20267;-91
2021/12/05 07:15:16;;;;;;;13.83;12.43;;;;;;;;;;5135004;27;20202;-91
2021/12/05 07:20:44;;;;;;;9.33;8.33;;;;;;;;;;5135052;27;20202;-91
2021/12/05 07:23:21;;;;;;;8.37;7.57;;;;;;;;;;5135567;27;20643;-91
2021/12/05 07:25:54;;;;;;;9.40;8.10;;;;;;;;;;5135261;27;20190;-90
2021/12/05 07:42:13;;;;;;;9.80;8.80;;;;;;;;;;5134798;27;20190;-90
2021/12/05 07:44:41;;;;;;;9.20;8.40;;;;;;;;;;5135002;27;20186;-89
2021/12/05 07:47:09;;;;;;;8.30;7.50;;;;;;;;;;5134104;27;20194;-91
2021/12/05 07:49:36;;;;;;;16.47;14.63;;;;;;;;;;5134494;27;20195;-94
2021/12/05 07:52:04;;;;;;;7.90;7.20;;;;;;;;;;5134903;27;20554;-95
2021/12/05 07:54:37;;;;;;;9.50;7.47;;;;;;;;;;5134945;27;20226;-96
2021/12/05 07:57:16;;;;;;;11.47;10.13;;;;;;;;;;5134896;27;20263;-94
2021/12/05 07:59:57;;;;;;;10.60;9.60;;;;;;;;;;5135103;27;20636;-95
2021/12/05 08:16:11;;;;;;;10.97;9.87;;;;;;;;;;5134280;27;20257;-95
2021/12/05 08:18:38;;;;;;;10.07;9.07;;;;;;;;;;5134458;27;20214;-94
2021/12/05 08:21:08;;;;;;;11.70;10.43;;;;;;;;;;5134267;27;20226;-95
2021/12/05 08:23:36;;;;;;;10.90;9.90;;;;;;;;;;5135098;27;20259;-95
2021/12/05 08:26:08;;;;;;;9.00;8.20;;;;;;;;;;5134159;27;20621;-95
2021/12/05 08:28:55;;;;;;;8.70;8.00;;;;;;;;;;5134313;27;20191;-94
2021/12/05 08:31:33;;;;;;;10.77;9.77;;;;;;;;;;5134060;27;20187;-96
2021/12/05 08:34:09;;;;;;;12.23;10.87;;;;;;;;;;5134125;27;20183;-94
2021/12/05 08:39:53;;;;;;;8.43;7.73;;;;;;;;;;5133495;27;20250;-95
2021/12/05 08:45:32;;;;;;;11.70;10.60;;;;;;;;;;5133846;27;20191;-95
2021/12/05 09:24:00;;;;;;;10.93;9.83;;;;;;;;;;5135349;27;20642;-95
2021/12/05 09:51:58;;;;;;;14.40;12.87;;;;;;;;;;5116410;28;20178;-94
2021/12/05 10:03:11;;;;;;;59.03;42.60;;;;;;;;;;5053878;28;20201;-93
2021/12/05 10:08:44;;;;;;;36.23;26.13;;;;;;;;;;5116045;28;20674;-94
2021/12/05 10:11:26;;;;;;;38.17;27.43;;;;;;;;;;5115612;28;20199;-93
2021/12/05 10:16:53;;;;;;;17.17;14.10;;;;;;;;;;5117947;28;20206;-94
2021/12/05 10:36:10;;;;;;;24.33;17.20;;;;;;;;;;5115532;28;20212;-94
2021/12/05 10:38:43;;;;;;;13.77;9.77;;;;;;;;;;5115214;28;20231;-94
2021/12/05 10:44:07;;;;;;;16.50;14.77;;;;;;;;;;5104797;28;20667;-93
2021/12/05 10:46:36;;;;;;;26.63;19.60;;;;;;;;;;5115434;28;20203;-94
2021/12/05 10:49:05;;;;;;;47.83;27.53;;;;;;;;;;5115524;27;20199;-94
2021/12/05 10:51:34;;;;;;;15.47;13.77;;;;;;;;;;5115277;28;20187;-94
2021/12/05 10:54:03;;;;;;;39.40;30.53;;;;;;;;;;5115238;28;20634;-94
2021/12/05 10:56:33;;;;;;;27.77;23.13;;;;;;;;;;5115057;28;20195;-94
2021/12/05 10:59:06;;;;;;;28.73;23.10;;;;;;;;;;5115190;28;20614;-95
2021/12/05 11:01:39;;;;;;;20.27;16.47;;;;;;;;;;5115326;28;20211;-94
2021/12/05 11:04:08;;;;;;;21.13;18.67;;;;;;;;;;5115351;28;20672;-94
2021/12/05 11:06:39;;;;;;;22.20;19.83;;;;;;;;;;5114837;28;20192;-94
2021/12/05 11:09:12;;;;;;;24.80;21.07;;;;;;;;;;5115107;28;20282;-93
2021/12/05 11:11:43;;;;;;;37.13;28.37;;;;;;;;;;5114664;28;20176;-94
2021/12/05 11:14:13;;;;;;;35.63;28.40;;;;;;;;;;5114796;28;20192;-96
2021/12/05 11:16:48;;;;;;;32.17;24.27;;;;;;;;;;5114675;28;20224;-95
2021/12/05 11:19:22;;;;;;;24.03;20.77;;;;;;;;;;5114695;28;20259;-95
2021/12/05 11:21:56;;;;;;;26.90;20.83;;;;;;;;;;5113534;28;20216;-94
2021/12/05 11:24:28;;;;;;;38.03;26.00;;;;;;;;;;5114230;28;20682;-95
2021/12/05 11:27:27;;;;;;;21.33;16.97;;;;;;;;;;5114445;28;20195;-94
2021/12/05 11:30:13;;;;;;;30.57;25.13;;;;;;;;;;5114560;28;20192;-94
2021/12/05 11:32:45;;;;;;;19.87;17.77;;;;;;;;;;5114285;28;20210;-96
2021/12/05 11:35:32;;;;;;;24.53;21.30;;;;;;;;;;5114614;28;20548;-94
2021/12/05 11:38:12;;;;;;;23.07;20.77;;;;;;;;;;5114432;28;20223;-95
2021/12/05 11:40:48;;;;;;;19.97;17.87;;;;;;;;;;5114417;28;20242;-95
2021/12/05 11:43:19;;;;;;;26.13;23.37;;;;;;;;;;5114057;27;20179;-93
2021/12/05 11:46:07;;;;;;;28.13;23.03;;;;;;;;;;5114206;28;20257;-94
2021/12/05 11:48:38;;;;;;;26.33;23.53;;;;;;;;;;5113943;28;20203;-93
2021/12/05 11:51:21;;;;;;;39.43;35.20;;;;;;;;;;5113928;28;20180;-95
2021/12/05 11:53:50;;;;;;;24.07;21.47;;;;;;;;;;5114006;28;20685;-94
2021/12/05 11:56:21;;;;;;;22.93;20.47;;;;;;;;;;5113887;28;20215;-94
2021/12/05 11:59:05;;;;;;;18.90;17.07;;;;;;;;;;5113873;28;20252;-95
2021/12/05 12:01:35;;;;;;;16.43;14.80;;;;;;;;;;5113752;28;20216;-95
2021/12/05 12:04:05;;;;;;;28.00;19.57;;;;;;;;;;5113907;28;20199;-94
2021/12/05 12:06:32;;;;;;;25.03;19.03;;;;;;;;;;5113833;28;20184;-94
2021/12/05 12:09:00;;;;;;;53.83;30.93;;;;;;;;;;5113506;28;20223;-94
2021/12/05 12:11:28;;;;;;;59.63;36.17;;;;;;;;;;5113737;28;20287;-94
2021/12/05 12:13:55;;;;;;;38.73;25.17;;;;;;;;;;5113834;28;20223;-94
2021/12/05 12:16:23;;;;;;;64.60;39.97;;;;;;;;;;5113940;28;20294;-93
2021/12/05 12:18:51;;;;;;;71.80;44.67;;;;;;;;;;5113512;28;20192;-93
2021/12/05 12:21:25;;;;;;;168.77;92.40;;;;;;;;;;5113422;28;20711;-94
2021/12/05 12:23:56;;;;;;;42.60;36.10;;;;;;;;;;5113468;28;20697;-93
2021/12/05 12:26:23;;;;;;;28.90;25.73;;;;;;;;;;5113568;28;20203;-94
2021/12/05 12:28:52;;;;;;;17.67;16.00;;;;;;;;;;5113747;28;20279;-94
2021/12/05 12:31:28;;;;;;;32.97;26.67;;;;;;;;;;5113539;28;20252;-93
2021/12/05 12:43:44;;;;;;;24.40;21.80;;;;;;;;;;4924882;28;20207;-93
2021/12/05 12:46:25;;;;;;;56.07;40.00;;;;;;;;;;4981450;28;20271;-93
2021/12/05 12:48:57;;;;;;;28.90;22.20;;;;;;;;;;4980016;28;20267;-93
2021/12/05 12:51:35;;;;;;;19.47;17.27;;;;;;;;;;4980198;28;20232;-94
2021/12/05 12:54:07;;;;;;;23.03;20.57;;;;;;;;;;4984343;28;20583;-95
2021/12/05 12:56:34;;;;;;;14.73;13.23;;;;;;;;;;5000576;28;20195;-95
2021/12/05 12:59:07;;;;;;;13.60;12.27;;;;;;;;;;5000283;28;20302;-94
2021/12/05 13:04:33;;;;;;;15.53;13.80;;;;;;;;;;4972405;28;20364;-94
2021/12/05 13:10:04;;;;;;;21.10;18.97;;;;;;;;;;5051052;28;20185;-94
2021/12/05 13:12:49;;;;;;;20.87;18.87;;;;;;;;;;5050778;28;20190;-94
2021/12/05 13:15:22;;;;;;;26.03;22.93;;;;;;;;;;5112999;28;20187;-94
2021/12/05 13:17:51;;;;;;;33.47;26.37;;;;;;;;;;5113265;28;20252;-94
2021/12/05 13:20:21;;;;;;;20.97;17.97;;;;;;;;;;5112707;28;20210;-95
2021/12/05 13:23:09;;;;;;;26.83;21.63;;;;;;;;;;5113225;28;20230;-94
2021/12/05 13:25:59;;;;;;;43.33;30.83;;;;;;;;;;5113032;28;20241;-94
2021/12/05 13:28:34;;;;;;;19.73;17.27;;;;;;;;;;5113004;28;20226;-94
2021/12/05 13:31:31;;;;;;;20.83;18.40;;;;;;;;;;5113219;28;20180;-93
2021/12/05 13:34:17;;;;;;;27.40;24.50;;;;;;;;;;5112874;28;20188;-94
2021/12/05 13:36:46;;;;;;;27.93;24.47;;;;;;;;;;5112633;28;20188;-93
2021/12/05 13:39:32;;;;;;;26.80;24.07;;;;;;;;;;5112589;28;20266;-94
2021/12/05 13:42:05;;;;;;;25.87;23.07;;;;;;;;;;5112811;28;20211;-94
2021/12/05 13:45:10;;;;;;;39.90;32.60;;;;;;;;;;5112769;28;20724;-94
2021/12/05 13:47:42;;;;;;;28.67;23.77;;;;;;;;;;5116609;28;20195;-93
2021/12/05 13:50:31;;;;;;;19.33;17.37;;;;;;;;;;5116627;28;20190;-94
2021/12/05 13:53:01;;;;;;;18.57;15.93;;;;;;;;;;5116353;28;20223;-93
2021/12/05 13:55:38;;;;;;;17.07;15.40;;;;;;;;;;5116591;28;20631;-94
2021/12/05 13:58:24;;;;;;;20.17;18.07;;;;;;;;;;5116135;28;20191;-95
2021/12/05 14:00:55;;;;;;;23.90;20.67;;;;;;;;;;5116321;28;20227;-92
2021/12/05 14:03:45;;;;;;;18.87;16.97;;;;;;;;;;5116010;28;20184;-94
2021/12/05 14:06:49;;;;;;;41.13;31.30;;;;;;;;;;5116473;28;20262;-93
2021/12/05 14:09:19;;;;;;;32.00;23.90;;;;;;;;;;5073682;28;20199;-94
2021/12/05 14:11:49;;;;;;;54.20;40.43;;;;;;;;;;5116040;28;20180;-93
2021/12/05 14:14:19;;;;;;;69.87;43.13;;;;;;;;;;5116113;28;20220;-93
2021/12/05 14:16:49;;;;;;;30.53;25.83;;;;;;;;;;5116126;28;20284;-94
2021/12/05 14:19:21;;;;;;;29.57;20.07;;;;;;;;;;5116199;28;20702;-93
2021/12/05 14:21:52;;;;;;;27.63;24.67;;;;;;;;;;5115971;28;20553;-93
2021/12/05 14:24:24;;;;;;;51.70;41.23;;;;;;;;;;5115732;28;20279;-93
2021/12/05 14:26:54;;;;;;;57.90;47.23;;;;;;;;;;5115671;28;20183;-93
2021/12/05 14:29:23;;;;;;;53.03;44.70;;;;;;;;;;5115548;28;20191;-94
2021/12/05 14:31:54;;;;;;;44.10;38.20;;;;;;;;;;5115783;28;20199;-94
2021/12/05 14:34:23;;;;;;;63.00;50.60;;;;;;;;;;5115961;28;20275;-94
2021/12/05 14:36:52;;;;;;;52.93;41.70;;;;;;;;;;5115708;28;20202;-93
2021/12/05 14:39:23;;;;;;;36.67;32.70;;;;;;;;;;5115273;28;20259;-95
2021/12/05 14:41:53;;;;;;;21.73;19.63;;;;;;;;;;5114661;27;20265;-92
2021/12/05 14:44:21;;;;;;;41.10;34.73;;;;;;;;;;5115296;28;20203;-94
2021/12/05 14:46:51;;;;;;;25.57;22.00;;;;;;;;;;5115637;28;20192;-94
2021/12/05 14:49:22;;;;;;;24.10;21.00;;;;;;;;;;5115445;28;20220;-93
2021/12/05 14:51:50;;;;;;;20.70;17.47;;;;;;;;;;5115547;28;20180;-93
2021/12/05 14:54:20;;;;;;;19.03;17.13;;;;;;;;;;5115413;28;20278;-93
2021/12/05 14:56:48;;;;;;;18.30;16.40;;;;;;;;;;5115104;28;20201;-93
2021/12/05 14:59:17;;;;;;;19.90;17.83;;;;;;;;;;5115027;28;20448;-93
2021/12/05 15:01:48;;;;;;;17.47;15.77;;;;;;;;;;5115434;28;20691;-91
2021/12/05 15:04:20;;;;;;;18.30;16.60;;;;;;;;;;5115389;28;20288;-91
2021/12/05 15:06:49;;;;;;;19.47;17.67;;;;;;;;;;5115082;28;20190;-91
2021/12/05 15:09:21;;;;;;;20.07;16.80;;;;;;;;;;5115175;28;20298;-91
2021/12/05 15:11:55;;;;;;;14.87;13.27;;;;;;;;;;5115160;28;20186;-93
2021/12/05 15:14:23;;;;;;;19.43;17.27;;;;;;;;;;5114329;28;20256;-91
2021/12/05 15:16:55;;;;;;;19.67;17.67;;;;;;;;;;5114825;28;20195;-91
2021/12/05 15:19:23;;;;;;;17.07;15.47;;;;;;;;;;5114575;28;20200;-91
2021/12/05 15:21:52;;;;;;;20.10;18.03;;;;;;;;;;5114569;28;20231;-91
2021/12/05 15:24:21;;;;;;;19.97;18.07;;;;;;;;;;5114458;28;20256;-91
2021/12/05 15:26:49;;;;;;;17.03;15.20;;;;;;;;;;5121006;27;20195;-89
2021/12/05 15:29:16;;;;;;;18.27;16.47;;;;;;;;;;5114828;28;20201;-91
2021/12/05 15:31:44;;;;;;;15.63;14.03;;;;;;;;;;5114519;28;20195;-92
2021/12/05 15:34:25;;;;;;;19.60;17.07;;;;;;;;;;5114599;28;20584;-91
2021/12/05 15:36:54;;;;;;;24.60;22.13;;;;;;;;;;5121379;27;20220;-91
2021/12/05 15:39:23;;;;;;;21.73;19.57;;;;;;;;;;5129603;27;20259;-95
2021/12/05 15:41:52;;;;;;;27.80;25.17;;;;;;;;;;5114306;28;20694;-95
2021/12/05 15:44:28;;;;;;;28.97;25.93;;;;;;;;;;5114421;28;20621;-94
2021/12/05 15:47:09;;;;;;;24.53;22.13;;;;;;;;;;5114031;28;20180;-95
2021/12/05 15:49:55;;;;;;;19.80;17.83;;;;;;;;;;5114175;28;20182;-95
2021/12/05 15:52:27;;;;;;;26.90;24.20;;;;;;;;;;5114180;28;20620;-95
2021/12/05 15:54:56;;;;;;;22.27;19.60;;;;;;;;;;5114276;28;20180;-95
2021/12/05 15:57:30;;;;;;;48.13;35.07;;;;;;;;;;5113871;28;20191;-94
2021/12/05 15:59:59;;;;;;;36.83;32.53;;;;;;;;;;5114514;28;20190;-93
2021/12/05 16:02:27;;;;;;;22.20;20.00;;;;;;;;;;5114075;28;20226;-93
2021/12/05 16:04:56;;;;;;;29.40;24.37;;;;;;;;;;5113546;28;20188;-93
2021/12/05 16:07:29;;;;;;;51.77;44.97;;;;;;;;;;5113413;28;20231;-94
2021/12/05 16:10:14;;;;;;;28.10;24.73;;;;;;;;;;5113466;28;20183;-94
2021/12/05 16:12:43;;;;;;;18.67;16.77;;;;;;;;;;5113796;28;20195;-94
2021/12/05 16:15:11;;;;;;;15.90;14.30;;;;;;;;;;5113459;28;20200;-94
2021/12/05 16:17:40;;;;;;;40.07;34.33;;;;;;;;;;5113072;28;20203;-94
2021/12/05 16:20:16;;;;;;;41.40;32.80;;;;;;;;;;5113421;28;20298;-95
2021/12/05 16:23:00;;;;;;;19.17;17.17;;;;;;;;;;5113325;28;20281;-94
2021/12/05 16:25:28;;;;;;;65.17;48.60;;;;;;;;;;5113480;28;20188;-95
2021/12/05 16:28:01;;;;;;;78.20;54.80;;;;;;;;;;5113418;28;20324;-94
2021/12/05 16:30:32;;;;;;;37.83;34.03;;;;;;;;;;5113333;28;20191;-95
2021/12/05 16:32:59;;;;;;;20.80;17.83;;;;;;;;;;5112955;28;20663;-94
2021/12/05 16:35:29;;;;;;;45.10;29.97;;;;;;;;;;5113092;28;20709;-94
2021/12/05 16:37:58;;;;;;;28.30;20.60;;;;;;;;;;5113008;28;20322;-94
2021/12/05 16:40:26;;;;;;;32.33;24.20;;;;;;;;;;5115847;28;20549;-95
2021/12/05 16:43:08;;;;;;;48.80;35.10;;;;;;;;;;5133327;28;20206;-95
2021/12/05 16:45:37;;;;;;;33.30;25.03;;;;;;;;;;5133825;28;20197;-94
2021/12/05 16:48:05;;;;;;;27.07;22.40;;;;;;;;;;5133969;28;20632;-93
2021/12/05 16:50:32;;;;;;;33.43;25.27;;;;;;;;;;5133899;28;20235;-93
2021/12/05 16:53:01;;;;;;;24.97;22.27;;;;;;;;;;5133747;27;20191;-95
2021/12/05 16:55:30;;;;;;;15.67;13.60;;;;;;;;;;5133641;27;20210;-94
2021/12/05 16:58:06;;;;;;;22.50;19.17;;;;;;;;;;5133864;27;20198;-93
2021/12/05 17:00:38;;;;;;;27.33;22.37;;;;;;;;;;5134032;27;20189;-92
2021/12/05 17:03:07;;;;;;;20.80;16.23;;;;;;;;;;5133773;28;20594;-94
2021/12/05 17:05:38;;;;;;;18.53;16.57;;;;;;;;;;5133475;28;20195;-93
2021/12/05 17:08:13;;;;;;;21.03;17.17;;;;;;;;;;5133717;28;20290;-93
2021/12/05 17:10:44;;;;;;;18.87;16.77;;;;;;;;;;5133951;27;20565;-94
2021/12/05 17:13:17;;;;;;;27.13;19.33;;;;;;;;;;5133649;28;20222;-95
2021/12/05 17:15:50;;;;;;;18.57;15.90;;;;;;;;;;5133512;28;20262;-94
2021/12/05 17:18:19;;;;;;;16.67;14.93;;;;;;;;;;5133528;27;20180;-94
2021/12/05 17:20:49;;;;;;;17.30;15.30;;;;;;;;;;5135392;27;20282;-94
2021/12/05 17:23:24;;;;;;;18.77;16.80;;;;;;;;;;5137282;27;20215;-93
2021/12/05 17:25:53;;;;;;;18.40;15.13;;;;;;;;;;5137678;27;20562;-93
2021/12/05 17:28:33;;;;;;;22.63;19.13;;;;;;;;;;5137173;27;20693;-94
2021/12/05 17:31:02;;;;;;;99.00;62.33;;;;;;;;;;5137368;27;20183;-94
2021/12/05 17:33:33;;;;;;;47.40;35.53;;;;;;;;;;5137143;27;20195;-95
2021/12/05 17:36:16;;;;;;;39.73;27.50;;;;;;;;;;5137295;27;20198;-94
2021/12/05 17:38:44;;;;;;;28.37;20.00;;;;;;;;;;5136923;27;20233;-93
2021/12/05 17:41:12;;;;;;;24.90;19.57;;;;;;;;;;5137104;27;20230;-93
2021/12/05 17:43:39;;;;;;;30.50;25.57;;;;;;;;;;5137055;27;20218;-94
2021/12/05 17:46:07;;;;;;;58.77;43.13;;;;;;;;;;5135569;27;20201;-93
2021/12/05 17:48:34;;;;;;;96.03;77.90;;;;;;;;;;5137065;27;20198;-93
2021/12/05 17:51:04;;;;;;;42.53;36.00;;;;;;;;;;5137327;27;20663;-95
2021/12/05 17:53:33;;;;;;;22.83;18.07;;;;;;;;;;5137162;27;20191;-93
2021/12/05 17:56:08;;;;;;;31.30;27.47;;;;;;;;;;5136997;27;20221;-93
2021/12/05 17:58:51;;;;;;;50.80;45.40;;;;;;;;;;5136410;27;20190;-94
2021/12/05 18:04:05;;;;;;;48.90;43.30;;;;;;;;;;5136912;27;20266;-94
2021/12/05 18:06:33;;;;;;;45.37;38.63;;;;;;;;;;5136959;27;20205;-93
2021/12/05 18:09:00;;;;;;;40.90;35.03;;;;;;;;;;5136538;27;20290;-93
2021/12/05 18:11:29;;;;;;;21.00;18.73;;;;;;;;;;5136308;27;20195;-94
2021/12/05 18:13:58;;;;;;;15.83;14.23;;;;;;;;;;5136583;27;20187;-94
2021/12/05 18:16:27;;;;;;;20.10;15.90;;;;;;;;;;5136847;27;20565;-94
2021/12/05 18:18:57;;;;;;;22.97;20.50;;;;;;;;;;5136293;27;20655;-95
2021/12/05 18:21:25;;;;;;;33.97;27.07;;;;;;;;;;5136430;27;20195;-94
2021/12/05 18:23:53;;;;;;;24.33;18.73;;;;;;;;;;5135950;27;20233;-93
2021/12/05 18:26:23;;;;;;;15.53;13.93;;;;;;;;;;5136464;27;20199;-93
2021/12/05 18:28:52;;;;;;;32.77;29.27;;;;;;;;;;5136480;27;20190;-94
2021/12/05 18:31:23;;;;;;;17.70;15.80;;;;;;;;;;5136039;27;20250;-94
2021/12/05 18:33:55;;;;;;;15.37;13.87;;;;;;;;;;5136196;27;20179;-94
2021/12/05 18:36:23;;;;;;;133.23;70.97;;;;;;;;;;5136657;27;20278;-92
2021/12/05 18:38:50;;;;;;;77.50;46.73;;;;;;;;;;5135893;27;20230;-94
2021/12/05 18:41:18;;;;;;;73.00;43.60;;;;;;;;;;5136140;27;20198;-94
2021/12/05 18:43:46;;;;;;;42.30;27.83;;;;;;;;;;5135338;27;20320;-93
2021/12/05 18:46:14;;;;;;;21.00;16.53;;;;;;;;;;5135708;27;20289;-93
2021/12/05 18:48:43;;;;;;;18.17;13.77;;;;;;;;;;5136021;27;20217;-93
2021/12/05 18:51:12;;;;;;;18.43;13.47;;;;;;;;;;5135863;27;20191;-94
2021/12/05 18:53:41;;;;;;;14.80;12.00;;;;;;;;;;5135637;27;20250;-94
2021/12/05 18:56:09;;;;;;;17.60;14.67;;;;;;;;;;5135883;27;20275;-94
2021/12/05 18:58:41;;;;;;;16.33;14.57;;;;;;;;;;5135441;27;20198;-93
2021/12/05 19:06:51;;;;;;;19.10;16.30;;;;;;;;;;5098881;27;20191;-93
2021/12/05 19:09:27;;;;;;;21.87;18.10;;;;;;;;;;5135440;27;20227;-94
2021/12/05 19:11:55;;;;;;;18.40;15.70;;;;;;;;;;5135269;27;20201;-93
2021/12/05 19:14:25;;;;;;;22.53;17.40;;;;;;;;;;5135696;27;20644;-93
2021/12/05 19:16:55;;;;;;;18.40;14.00;;;;;;;;;;5124242;27;20285;-93
2021/12/05 19:19:24;;;;;;;19.53;15.90;;;;;;;;;;5135255;27;20191;-93
2021/12/05 19:21:51;;;;;;;21.27;18.93;;;;;;;;;;5135037;27;20199;-93
2021/12/05 19:24:20;;;;;;;22.43;16.83;;;;;;;;;;5134871;27;20236;-94
2021/12/05 19:26:49;;;;;;;17.63;15.07;;;;;;;;;;5135249;27;20198;-93
2021/12/05 19:29:18;;;;;;;18.23;15.57;;;;;;;;;;5135028;27;20263;-93
2021/12/05 19:31:46;;;;;;;22.17;17.17;;;;;;;;;;5135065;27;20198;-94
2021/12/05 19:34:14;;;;;;;18.50;14.37;;;;;;;;;;5135179;27;20202;-94
2021/12/05 19:36:43;;;;;;;17.70;14.77;;;;;;;;;;5134851;27;20191;-94
2021/12/05 19:39:11;;;;;;;29.70;21.40;;;;;;;;;;5134590;27;20257;-93